createdAt,value
2022-09-11T00:01:29.561Z,11.93
2022-09-11T00:06:34.347Z,8.52
2022-09-11T00:11:41.899Z,6.60
2022-09-11T00:16:49.246Z,7.13
2022-09-11T00:21:56.295Z,7.47
2022-09-11T00:27:01.361Z,7.35
2022-09-11T00:32:07.509Z,9.98
2022-09-11T00:37:12.568Z,9.88
2022-09-11T00:42:16.708Z,8.73
2022-09-11T00:47:22.170Z,8.85
2022-09-11T00:52:30.392Z,7.75
2022-09-11T00:57:41.575Z,6.88
2022-09-11T01:02:50.963Z,7.57
2022-09-11T01:07:57.989Z,6.65
2022-09-11T01:13:11.700Z,5.25
2022-09-11T01:18:27.292Z,5.32
2022-09-11T01:23:51.348Z,5.43
2022-09-11T01:29:03.455Z,4.40
2022-09-11T01:34:18.075Z,5.03
2022-09-11T01:39:26.906Z,3.95
2022-09-11T01:44:38.946Z,5.70
2022-09-11T01:49:51.697Z,5.32
2022-09-11T01:55:05.744Z,4.80
2022-09-11T02:05:25.423Z,4.97
2022-09-11T02:10:38.299Z,5.60
2022-09-11T02:15:48.798Z,8.35
2022-09-11T02:20:56.118Z,8.77
2022-09-11T02:26:00.697Z,9.13
2022-09-11T02:31:08.616Z,11.73
2022-09-11T02:36:35.834Z,11.07
2022-09-11T02:41:53.458Z,9.77
2022-09-11T02:47:12.604Z,9.80
2022-09-11T02:52:30.331Z,9.33
2022-09-11T02:57:44.274Z,9.70
2022-09-11T03:02:51.436Z,9.60
2022-09-11T03:07:56.217Z,10.02
2022-09-11T03:13:00.630Z,11.32
2022-09-11T03:18:10.872Z,8.98
2022-09-11T03:23:15.569Z,9.40
2022-09-11T03:28:20.276Z,9.50
2022-09-11T03:33:28.400Z,10.13
2022-09-11T03:38:33.652Z,9.40
2022-09-11T03:43:39.356Z,9.23
2022-09-11T03:48:46.720Z,8.45
2022-09-11T03:53:51.422Z,8.77
2022-09-11T03:58:59.069Z,7.97
2022-09-11T04:04:06.451Z,8.13
2022-09-11T04:09:18.171Z,7.35
2022-09-11T04:14:25.224Z,8.68
2022-09-11T04:19:34.807Z,9.85
2022-09-11T04:24:39.332Z,8.80
2022-09-11T04:29:43.804Z,12.73
2022-09-11T04:34:50.128Z,10.45
2022-09-11T04:39:55.387Z,10.90
2022-09-11T04:44:59.900Z,15.70
2022-09-11T04:50:06.137Z,11.60
2022-09-11T04:55:11.837Z,11.60
2022-09-11T05:00:18.084Z,13.00
2022-09-11T05:05:25.696Z,11.52
2022-09-11T05:10:33.668Z,12.43
2022-09-11T05:15:38.087Z,10.93
2022-09-11T05:20:44.607Z,11.32
2022-09-11T05:25:49.937Z,11.05
2022-09-11T05:30:54.992Z,10.80
2022-09-11T05:36:06.900Z,10.95
2022-09-11T05:41:13.131Z,12.73
2022-09-11T05:46:19.844Z,12.15
2022-09-11T05:51:30.824Z,11.63
2022-09-11T05:56:37.363Z,11.38
2022-09-11T06:01:48.279Z,9.43
2022-09-11T06:07:00.859Z,9.73
2022-09-11T06:12:07.156Z,8.60
2022-09-11T06:17:12.496Z,10.95
2022-09-11T06:22:19.797Z,8.20
2022-09-11T06:27:25.388Z,8.20
2022-09-11T06:32:31.022Z,8.05
2022-09-11T06:37:38.104Z,12.57
2022-09-11T06:42:44.605Z,12.18
2022-09-11T06:47:51.924Z,9.77
2022-09-11T06:52:58.509Z,11.60
2022-09-11T06:58:06.970Z,12.32
2022-09-11T07:03:13.302Z,16.10
2022-09-11T07:08:24.733Z,13.40
2022-09-11T07:13:29.648Z,15.30
2022-09-11T07:18:36.573Z,14.50
2022-09-11T07:23:50.707Z,13.80
2022-09-11T07:28:57.881Z,12.52
2022-09-11T07:34:03.800Z,13.82
2022-09-11T07:39:12.169Z,19.65
2022-09-11T07:44:38.181Z,18.40
2022-09-11T07:49:42.664Z,16.15
2022-09-11T07:54:50.740Z,14.82
2022-09-11T07:59:56.896Z,14.57
2022-09-11T08:05:04.010Z,14.77
2022-09-11T08:10:26.726Z,14.68
2022-09-11T08:15:33.281Z,12.80
2022-09-11T08:20:39.297Z,13.27
2022-09-11T08:25:45.919Z,10.90
2022-09-11T08:30:52.262Z,9.85
2022-09-11T08:35:59.390Z,9.43
2022-09-11T08:41:15.388Z,8.50
2022-09-11T08:46:25.584Z,10.07
2022-09-11T08:51:32.326Z,8.48
2022-09-11T08:56:40.763Z,8.60
2022-09-11T09:01:55.522Z,9.73
2022-09-11T09:07:12.400Z,9.73
2022-09-11T09:12:28.484Z,10.88
2022-09-11T09:17:38.804Z,9.98
2022-09-11T09:22:49.536Z,11.73
2022-09-11T09:28:03.456Z,14.48
2022-09-11T09:33:25.715Z,16.90
2022-09-11T09:38:32.633Z,16.23
2022-09-11T09:43:50.825Z,14.38
2022-09-11T09:48:57.036Z,15.23
2022-09-11T09:54:03.595Z,13.95
2022-09-11T09:59:19.694Z,16.70
2022-09-11T10:04:27.275Z,16.42
2022-09-11T10:09:32.417Z,10.90
2022-09-11T10:14:52.905Z,10.70
2022-09-11T10:20:13.367Z,11.23
2022-09-11T10:25:20.227Z,9.07
2022-09-11T10:30:32.359Z,6.10
2022-09-11T10:35:38.222Z,6.28
2022-09-11T10:40:47.491Z,7.05
2022-09-11T10:46:06.729Z,6.95
2022-09-11T10:51:14.132Z,5.93
2022-09-11T10:56:19.551Z,7.53
2022-09-11T11:01:26.446Z,6.78
2022-09-11T11:06:49.512Z,6.57
2022-09-11T11:12:19.415Z,9.73
2022-09-11T11:17:34.138Z,7.95
2022-09-11T11:23:00.222Z,4.10
2022-09-11T11:28:23.930Z,3.95
2022-09-11T11:34:04.556Z,7.03
2022-09-11T11:39:19.254Z,7.18
2022-09-11T11:44:33.911Z,5.25
2022-09-11T11:49:53.679Z,4.43
2022-09-11T12:00:12.830Z,4.30
2022-09-11T12:05:24.832Z,4.38
2022-09-11T12:15:37.140Z,5.57
2022-09-11T12:20:45.254Z,3.15
2022-09-11T12:25:53.984Z,3.45
2022-09-11T12:31:02.531Z,5.57
2022-09-11T12:36:11.657Z,5.32
2022-09-11T12:41:17.739Z,1.63
2022-09-11T12:47:01.815Z,2.33
2022-09-11T12:52:20.514Z,2.90
2022-09-11T12:57:31.216Z,2.83
2022-09-11T13:02:39.535Z,1.95
2022-09-11T13:07:51.644Z,2.45
2022-09-11T13:12:57.604Z,2.15
2022-09-11T13:18:01.881Z,1.92
2022-09-11T13:23:19.500Z,2.53
2022-09-11T13:28:27.316Z,3.63
2022-09-11T13:33:33.968Z,3.20
2022-09-11T13:38:39.966Z,2.85
2022-09-11T13:43:47.774Z,2.95
2022-09-11T13:48:58.211Z,2.53
2022-09-11T13:54:11.567Z,2.92
2022-09-11T13:59:50.657Z,3.80
2022-09-11T14:05:02.515Z,2.60
2022-09-11T14:10:23.048Z,6.22
2022-09-11T14:15:38.423Z,3.50
2022-09-11T14:20:46.760Z,3.08
2022-09-11T14:26:20.142Z,4.90
2022-09-11T14:31:35.784Z,5.60
2022-09-11T14:36:44.681Z,5.78
2022-09-11T14:41:51.219Z,8.75
2022-09-11T14:46:57.863Z,5.22
2022-09-11T14:52:03.533Z,5.93
2022-09-11T14:57:18.389Z,7.95
2022-09-11T15:02:27.235Z,7.47
2022-09-11T15:07:31.944Z,6.78
2022-09-11T15:12:37.980Z,10.57
2022-09-11T15:17:42.716Z,11.85
2022-09-11T15:22:47.395Z,9.80
2022-09-11T15:27:54.674Z,7.82
2022-09-11T15:32:59.770Z,9.35
2022-09-11T15:38:05.945Z,8.27
2022-09-11T15:43:11.765Z,8.80
2022-09-11T15:48:17.584Z,8.30
2022-09-11T15:53:21.772Z,8.70
2022-09-11T15:58:28.001Z,10.07
2022-09-11T16:03:33.671Z,10.02
2022-09-11T16:08:40.036Z,9.50
2022-09-11T16:13:50.234Z,9.02
2022-09-11T16:18:55.318Z,8.32
2022-09-11T16:24:02.148Z,8.80
2022-09-11T16:29:12.362Z,9.52
2022-09-11T16:39:22.174Z,8.88
2022-09-11T16:44:29.553Z,7.40
2022-09-11T16:49:50.373Z,7.25
2022-09-11T16:54:59.069Z,8.07
2022-09-11T17:00:07.847Z,8.38
2022-09-11T17:05:14.573Z,7.60
2022-09-11T17:10:19.202Z,9.02
2022-09-11T17:15:25.745Z,6.55
2022-09-11T17:20:30.060Z,6.25
2022-09-11T17:25:36.067Z,6.20
2022-09-11T17:30:41.769Z,5.38
2022-09-11T17:35:47.343Z,6.82
2022-09-11T17:40:57.681Z,4.78
2022-09-11T17:46:06.003Z,5.50
2022-09-11T17:51:12.571Z,5.85
2022-09-11T17:56:19.447Z,5.32
2022-09-11T18:01:26.903Z,4.97
2022-09-11T18:06:35.475Z,6.20
2022-09-11T18:11:40.191Z,5.55
2022-09-11T18:16:48.327Z,5.10
2022-09-11T18:21:53.599Z,5.97
2022-09-11T18:27:00.936Z,6.00
2022-09-11T18:32:09.872Z,6.13
2022-09-11T18:37:17.577Z,8.57
2022-09-11T18:42:22.446Z,6.95
2022-09-11T18:47:30.970Z,5.32
2022-09-11T18:52:36.867Z,4.47
2022-09-11T18:57:44.821Z,5.70
2022-09-11T19:02:57.403Z,7.22
2022-09-11T19:08:04.529Z,8.50
2022-09-11T19:13:08.892Z,6.53
2022-09-11T19:18:15.281Z,4.90
2022-09-11T19:23:19.398Z,5.90
2022-09-11T19:28:23.465Z,5.18
2022-09-11T19:33:31.254Z,8.32
2022-09-11T19:38:37.792Z,10.13
2022-09-11T19:43:45.794Z,13.23
2022-09-11T19:48:53.570Z,15.88
2022-09-11T19:54:00.717Z,20.45
2022-09-11T19:59:06.448Z,14.43
2022-09-11T20:04:14.134Z,14.70
2022-09-11T20:09:34.173Z,61.33
2022-09-11T20:14:42.660Z,12.88
2022-09-11T20:19:48.790Z,10.82
2022-09-11T20:24:53.330Z,10.27
2022-09-11T20:29:57.563Z,10.70
2022-09-11T20:35:03.766Z,11.70
2022-09-11T20:40:11.756Z,12.38
2022-09-11T20:45:17.025Z,11.77
2022-09-11T20:50:22.783Z,10.07
2022-09-11T20:55:27.646Z,11.18
2022-09-11T21:00:32.697Z,14.52
2022-09-11T21:05:38.991Z,17.75
2022-09-11T21:10:43.308Z,16.05
2022-09-11T21:15:49.399Z,14.50
2022-09-11T21:20:58.322Z,10.13
2022-09-11T21:26:03.782Z,10.05
2022-09-11T21:31:09.621Z,12.38
2022-09-11T21:36:16.076Z,12.98
2022-09-11T21:41:20.807Z,11.55
2022-09-11T21:46:26.122Z,15.50
2022-09-11T21:51:32.118Z,17.73
2022-09-11T21:56:36.430Z,14.63
2022-09-11T22:01:41.211Z,16.75
2022-09-11T22:06:47.782Z,15.23
2022-09-11T22:11:55.742Z,18.17
2022-09-11T22:17:04.025Z,15.07
2022-09-11T22:22:10.442Z,13.95
2022-09-11T22:27:14.769Z,15.23
2022-09-11T22:32:19.064Z,15.52
2022-09-11T22:37:24.979Z,14.48
2022-09-11T22:42:31.442Z,14.20
2022-09-11T22:47:36.661Z,11.95
2022-09-11T22:52:43.290Z,14.75
2022-09-11T22:57:47.583Z,17.05
2022-09-11T23:02:52.128Z,18.08
2022-09-11T23:07:57.930Z,19.08
2022-09-11T23:13:02.969Z,19.73
2022-09-11T23:18:07.607Z,14.45
2022-09-11T23:23:13.812Z,14.90
2022-09-11T23:28:18.119Z,14.57
2022-09-11T23:33:23.192Z,16.08
2022-09-11T23:38:29.332Z,15.23
2022-09-11T23:43:33.836Z,16.20
2022-09-11T23:48:38.534Z,23.48
2022-09-11T23:53:46.228Z,21.77
2022-09-11T23:58:50.976Z,21.08
